Time;durP1;ratioP1;P1;durP2;ratioP2;P2;SDS_P1;SDS_P2;PMS_P1;PMS_P2;Temp;Humidity;BMP_temperature;BMP_pressure;BME280_temperature;BME280_humidity;BME280_pressure;Samples;Min_cycle;Max_cycle;Signal;HPM_P1;HPM_P2
2023/04/26 00:00:44;;;;;;;9.05;3.05;;;;;;;9.08;58.45;102082.53;4948531;28;20043;-44
2023/04/26 00:03:11;;;;;;;7.63;3.13;;;;;;;9.06;58.52;102081.56;4945459;28;20039;-43
2023/04/26 00:05:37;;;;;;;6.97;3.15;;;;;;;9.00;58.65;102086.53;4948917;28;20413;-43
2023/04/26 00:08:03;;;;;;;8.80;3.30;;;;;;;8.94;58.86;102084.59;4946050;28;20027;-43
2023/04/26 00:10:28;;;;;;;11.80;3.25;;;;;;;8.87;59.12;102086.06;4953420;28;20414;-43
2023/04/26 00:12:54;;;;;;;7.38;3.05;;;;;;;8.82;59.41;102082.38;4949154;28;20042;-49
2023/04/26 00:15:19;;;;;;;7.72;3.00;;;;;;;8.76;59.28;102076.94;4949038;28;20506;-45
2023/04/26 00:17:44;;;;;;;5.85;2.83;;;;;;;8.72;59.38;102069.84;4947831;28;20042;-44
2023/04/26 00:20:11;;;;;;;7.97;2.83;;;;;;;8.71;59.80;102081.09;4944612;28;20035;-45
2023/04/26 00:22:37;;;;;;;8.60;3.10;;;;;;;8.69;59.78;102082.72;4947481;28;20058;-46
2023/04/26 00:25:02;;;;;;;7.30;2.80;;;;;;;8.67;60.07;102075.69;4944502;28;20117;-49
2023/04/26 00:27:27;;;;;;;10.77;3.17;;;;;;;8.61;60.11;102083.22;4947752;28;20039;-47
2023/04/26 00:29:53;;;;;;;6.38;2.83;;;;;;;8.57;60.19;102073.53;4944948;28;20110;-44
2023/04/26 00:32:18;;;;;;;7.88;2.72;;;;;;;8.52;60.38;102079.44;4948007;28;20027;-44
2023/04/26 00:34:43;;;;;;;8.02;3.15;;;;;;;8.46;60.55;102076.59;4948268;28;20078;-43
2023/04/26 00:37:09;;;;;;;10.70;3.35;;;;;;;8.27;62.25;102080.94;4944933;28;20114;-44
2023/04/26 00:39:34;;;;;;;7.82;3.22;;;;;;;8.40;61.15;102078.94;4948833;28;20038;-44
2023/04/26 00:41:59;;;;;;;6.18;2.90;;;;;;;8.43;60.83;102080.78;4946747;28;20140;-43
2023/04/26 00:44:24;;;;;;;8.43;3.47;;;;;;;8.37;61.14;102077.91;4952462;28;20039;-44
2023/04/26 00:46:52;;;;;;;7.05;2.85;;;;;;;8.39;61.40;102081.47;4946850;28;20039;-45
2023/04/26 00:49:20;;;;;;;6.55;2.80;;;;;;;8.38;60.97;102078.00;4949551;28;20097;-45
2023/04/26 00:51:47;;;;;;;8.02;3.10;;;;;;;8.39;61.06;102081.47;4949819;28;20035;-45
2023/04/26 00:54:14;;;;;;;7.45;2.80;;;;;;;8.39;61.12;102071.09;4944666;28;20054;-44
2023/04/26 00:56:41;;;;;;;6.47;2.92;;;;;;;8.33;61.67;102076.91;4947956;28;20113;-43
2023/04/26 00:59:07;;;;;;;9.30;3.28;;;;;;;8.28;61.62;102070.63;4941603;28;20474;-44
2023/04/26 01:01:33;;;;;;;7.47;2.85;;;;;;;8.20;61.55;102068.50;4945933;28;20122;-44
2023/04/26 01:03:59;;;;;;;7.97;3.35;;;;;;;8.20;61.51;102073.69;4944052;28;20038;-44
2023/04/26 01:06:24;;;;;;;7.80;3.05;;;;;;;8.18;61.42;102068.44;4947171;28;20035;-45
2023/04/26 01:08:52;;;;;;;7.88;2.90;;;;;;;8.18;61.79;102075.34;4942488;28;20030;-45
2023/04/26 01:11:21;;;;;;;9.05;2.72;;;;;;;8.15;61.90;102074.41;4946408;28;20046;-42
2023/04/26 01:13:47;;;;;;;9.35;3.45;;;;;;;8.14;61.89;102075.22;4946856;28;20122;-45
2023/04/26 01:16:12;;;;;;;7.78;2.92;;;;;;;7.87;63.33;102076.63;4942107;28;20035;-45
2023/04/26 01:18:38;;;;;;;9.45;3.45;;;;;;;8.01;63.06;102074.63;4946484;28;20038;-45
2023/04/26 01:21:04;;;;;;;10.50;2.90;;;;;;;8.12;62.45;102076.84;4946171;28;20127;-45
2023/04/26 01:23:29;;;;;;;8.50;3.10;;;;;;;8.24;61.85;102078.19;4953859;28;20054;-44
2023/04/26 01:25:55;;;;;;;8.52;3.10;;;;;;;8.18;61.75;102085.72;4947456;28;20027;-44
2023/04/26 01:28:20;;;;;;;6.38;2.75;;;;;;;8.17;61.69;102081.38;4948632;28;20447;-44
2023/04/26 01:30:46;;;;;;;5.00;2.80;;;;;;;8.13;61.62;102076.03;4947239;28;20415;-44
2023/04/26 01:33:11;;;;;;;6.20;2.60;;;;;;;8.14;61.77;102079.53;4940959;28;20568;-47
2023/04/26 01:35:36;;;;;;;5.93;2.80;;;;;;;8.15;61.98;102073.50;4947802;28;20037;-43
2023/04/26 01:38:03;;;;;;;7.82;2.80;;;;;;;8.15;61.62;102070.91;4958458;28;20061;-46
2023/04/26 01:40:28;;;;;;;7.28;3.03;;;;;;;8.04;62.40;102077.38;4948251;28;20035;-45
2023/04/26 01:42:53;;;;;;;5.60;2.60;;;;;;;8.12;61.94;102070.78;4946898;28;20094;-45
2023/04/26 01:45:19;;;;;;;6.35;2.80;;;;;;;8.11;61.75;102071.63;4946630;28;20063;-46
2023/04/26 01:47:44;;;;;;;6.90;3.10;;;;;;;7.98;62.37;102075.41;4944503;28;20942;-45
2023/04/26 01:50:10;;;;;;;7.43;3.00;;;;;;;7.99;62.66;102071.09;4942933;28;20058;-44
2023/04/26 01:52:35;;;;;;;7.47;2.90;;;;;;;8.07;62.56;102080.09;4946297;28;20058;-45
2023/04/26 01:55:00;;;;;;;10.02;3.10;;;;;;;8.09;62.26;102074.16;4941154;28;20036;-46
2023/04/26 01:57:26;;;;;;;7.25;3.08;;;;;;;8.11;61.84;102074.22;4945846;28;20046;-41
2023/04/26 01:59:53;;;;;;;7.65;2.67;;;;;;;8.08;62.03;102069.78;4943265;28;20134;-43
2023/04/26 02:02:18;;;;;;;7.03;3.22;;;;;;;8.00;62.54;102076.34;4946780;28;20043;-42
2023/04/26 02:04:43;;;;;;;7.28;3.13;;;;;;;8.05;62.67;102074.81;4948323;28;20043;-46
2023/04/26 02:07:09;;;;;;;8.52;3.30;;;;;;;8.01;63.04;102077.22;4947520;28;20490;-43
2023/04/26 02:09:34;;;;;;;8.10;3.17;;;;;;;8.00;62.61;102076.34;4948679;28;20046;-44
2023/04/26 02:11:59;;;;;;;9.02;3.08;;;;;;;7.96;62.86;102077.03;4941626;28;20035;-47
2023/04/26 02:14:24;;;;;;;10.10;3.30;;;;;;;8.02;62.61;102076.41;4949599;28;20143;-44
2023/04/26 02:16:50;;;;;;;6.35;3.13;;;;;;;8.04;62.47;102073.06;4947321;28;20532;-44
2023/04/26 02:19:16;;;;;;;7.90;3.45;;;;;;;7.97;63.27;102071.03;4977074;23;20047;-47
2023/04/26 02:21:56;;;;;;;7.53;2.78;;;;;;;8.10;62.92;102069.84;4967024;28;20042;-45
2023/04/26 02:24:22;;;;;;;8.40;3.20;;;;;;;8.10;62.75;102075.03;4966875;28;20037;-41
2023/04/26 02:26:48;;;;;;;9.35;3.60;;;;;;;7.95;63.17;102070.06;4966189;28;20557;-44
2023/04/26 02:29:13;;;;;;;6.05;3.00;;;;;;;8.04;63.49;102077.38;4968946;28;20129;-44
2023/04/26 02:31:39;;;;;;;8.15;3.00;;;;;;;8.19;63.40;102071.91;4968552;28;20074;-43
2023/04/26 02:34:05;;;;;;;7.85;3.47;;;;;;;8.21;62.98;102072.88;4964948;28;20397;-43
2023/04/26 02:36:31;;;;;;;6.00;3.30;;;;;;;8.25;62.86;102072.19;4967343;28;20069;-44
2023/04/26 02:38:57;;;;;;;8.70;3.08;;;;;;;8.26;62.34;102071.34;4967190;28;20041;-43
2023/04/26 02:41:23;;;;;;;6.90;3.10;;;;;;;8.25;62.06;102066.97;4973204;28;20038;-45
2023/04/26 02:43:49;;;;;;;8.57;3.40;;;;;;;8.15;62.32;102061.41;4969247;28;20030;-43
2023/04/26 02:46:14;;;;;;;6.80;3.60;;;;;;;8.14;61.96;102064.84;4967769;28;20205;-44
2023/04/26 02:48:40;;;;;;;8.43;3.00;;;;;;;8.07;62.22;102068.00;4966581;28;20041;-46
2023/04/26 02:51:05;;;;;;;7.18;3.53;;;;;;;8.03;61.82;102070.41;4961422;28;20389;-47
2023/04/26 02:53:30;;;;;;;9.85;3.38;;;;;;;8.01;61.95;102069.44;4966888;28;20042;-40
2023/04/26 02:55:56;;;;;;;6.90;3.35;;;;;;;7.95;62.12;102067.47;4963154;28;20674;-43
2023/04/26 02:58:21;;;;;;;7.60;3.22;;;;;;;7.91;62.14;102056.91;4967136;28;20263;-43
2023/04/26 03:00:47;;;;;;;7.97;3.42;;;;;;;7.86;62.21;102054.09;4966423;28;20518;-43
2023/04/26 03:03:13;;;;;;;6.43;3.35;;;;;;;7.85;61.76;102049.72;4964865;28;20042;-41
2023/04/26 03:05:38;;;;;;;11.07;3.40;;;;;;;7.78;63.05;102058.06;4968205;28;20034;-47
2023/04/26 03:08:04;;;;;;;6.35;3.40;;;;;;;7.84;62.50;102052.25;4964514;28;20031;-43
2023/04/26 03:10:30;;;;;;;6.13;3.25;;;;;;;7.87;62.66;102061.03;4967472;28;20397;-41
2023/04/26 03:12:55;;;;;;;9.15;3.45;;;;;;;7.88;62.74;102061.94;4963805;28;20113;-43
2023/04/26 03:15:21;;;;;;;7.22;3.40;;;;;;;7.90;62.63;102055.13;4967729;28;20045;-43
2023/04/26 03:17:46;;;;;;;7.95;3.65;;;;;;;7.89;62.69;102055.94;4969023;28;20039;-44
2023/04/26 03:20:12;;;;;;;8.20;3.45;;;;;;;7.93;62.51;102055.25;4964534;28;20062;-45
2023/04/26 03:22:38;;;;;;;8.95;3.40;;;;;;;7.89;62.56;102051.63;4968878;28;20457;-42
2023/04/26 03:25:04;;;;;;;9.70;3.38;;;;;;;7.85;62.56;102052.31;4969190;28;20030;-47
2023/04/26 03:27:29;;;;;;;10.75;3.97;;;;;;;7.85;62.38;102052.31;4972079;28;20053;-43
2023/04/26 03:29:55;;;;;;;9.35;3.90;;;;;;;7.79;62.90;102051.16;4967481;28;20509;-44
2023/04/26 03:32:20;;;;;;;8.30;3.60;;;;;;;7.81;62.32;102050.41;4969609;28;20058;-46
2023/04/26 03:34:47;;;;;;;6.82;3.42;;;;;;;7.78;62.02;102052.88;4968356;28;20051;-43
2023/04/26 03:37:13;;;;;;;9.57;3.90;;;;;;;7.73;62.35;102044.91;4967998;28;20035;-45
2023/04/26 03:39:38;;;;;;;6.93;3.63;;;;;;;7.66;62.60;102045.44;4968219;28;20204;-45
2023/04/26 03:42:03;;;;;;;8.60;3.78;;;;;;;7.65;62.50;102043.66;4962676;28;20031;-43
2023/04/26 03:44:29;;;;;;;9.82;3.60;;;;;;;7.63;62.64;102044.41;4968159;28;20038;-44
2023/04/26 03:46:55;;;;;;;10.43;4.22;;;;;;;7.55;63.15;102040.63;4967054;28;20042;-43
2023/04/26 03:49:20;;;;;;;8.90;4.03;;;;;;;7.54;63.37;102044.03;4968434;28;20035;-45
2023/04/26 03:51:46;;;;;;;8.05;3.80;;;;;;;7.56;63.16;102037.19;4967405;28;20510;-44
2023/04/26 03:54:11;;;;;;;8.10;3.70;;;;;;;7.57;62.67;102036.34;4963764;28;20062;-43
2023/04/26 03:56:38;;;;;;;11.02;4.25;;;;;;;7.54;63.30;102024.16;4967545;28;20027;-42
2023/04/26 03:59:03;;;;;;;10.65;4.45;;;;;;;7.57;63.46;102029.47;4964407;28;20053;-43
2023/04/26 04:01:28;;;;;;;8.55;3.75;;;;;;;7.61;63.53;102031.38;4967340;28;20031;-43
2023/04/26 04:03:54;;;;;;;10.85;4.13;;;;;;;7.57;63.91;102031.16;4964199;28;20042;-44
2023/04/26 04:06:19;;;;;;;9.20;3.75;;;;;;;7.65;64.25;102027.22;4967891;28;20031;-43
2023/04/26 04:08:44;;;;;;;10.07;4.22;;;;;;;7.68;64.19;102035.16;4966760;28;20031;-43
2023/04/26 04:11:09;;;;;;;9.23;4.30;;;;;;;7.57;64.92;102028.56;4963693;28;20043;-45
2023/04/26 04:13:35;;;;;;;10.93;4.40;;;;;;;7.73;64.45;102038.81;4967426;28;20031;-44
2023/04/26 04:16:00;;;;;;;9.07;4.35;;;;;;;7.83;63.97;102038.38;4962243;28;20389;-45
2023/04/26 04:18:26;;;;;;;9.00;4.00;;;;;;;7.86;63.83;102040.22;4964582;28;20043;-47
2023/04/26 04:20:51;;;;;;;7.78;3.97;;;;;;;7.85;63.75;102036.75;4960207;28;20035;-42
2023/04/26 04:23:16;;;;;;;10.40;4.40;;;;;;;7.84;63.68;102047.94;4966413;28;20026;-43
2023/04/26 04:25:42;;;;;;;10.45;4.43;;;;;;;7.79;63.99;102039.09;4968289;28;20130;-48
2023/04/26 04:28:08;;;;;;;12.02;4.53;;;;;;;7.84;63.87;102037.56;4965036;28;20101;-46
2023/04/26 04:30:34;;;;;;;9.55;4.32;;;;;;;7.88;63.81;102048.97;4968842;28;20027;-43
2023/04/26 04:32:59;;;;;;;10.73;4.60;;;;;;;7.91;63.74;102043.91;4963744;28;20429;-45
2023/04/26 04:35:28;;;;;;;9.38;4.45;;;;;;;7.93;63.78;102044.88;4967633;28;20042;-45
2023/04/26 04:37:56;;;;;;;9.50;4.32;;;;;;;7.94;63.67;102044.03;4963681;28;20039;-43
2023/04/26 04:40:23;;;;;;;10.27;4.70;;;;;;;7.97;63.77;102046.78;4968510;28;20026;-45
2023/04/26 04:42:48;;;;;;;9.35;4.60;;;;;;;7.91;63.82;102050.00;4964157;28;20506;-44
2023/04/26 04:45:14;;;;;;;11.43;4.38;;;;;;;7.96;63.87;102045.88;4967738;28;20241;-43
2023/04/26 04:47:39;;;;;;;10.93;4.70;;;;;;;7.98;63.45;102045.94;4969317;28;20047;-46
2023/04/26 04:50:06;;;;;;;9.88;4.57;;;;;;;7.98;63.74;102051.16;4967018;28;21156;-47
2023/04/26 04:52:35;;;;;;;10.02;4.75;;;;;;;7.98;63.54;102053.75;4971259;28;20572;-44
2023/04/26 04:55:01;;;;;;;9.68;4.75;;;;;;;7.97;63.72;102049.38;4968936;28;20043;-43
2023/04/26 04:57:26;;;;;;;10.50;4.93;;;;;;;7.96;64.11;102050.19;4987747;28;20077;-45
2023/04/26 04:59:52;;;;;;;13.43;4.70;;;;;;;8.11;63.91;102050.84;4970764;28;20038;-45
2023/04/26 05:02:18;;;;;;;9.55;4.50;;;;;;;8.21;64.04;102053.00;4968887;28;20038;-43
2023/04/26 05:04:43;;;;;;;12.57;4.80;;;;;;;8.27;63.89;102057.56;4966882;28;20573;-45
2023/04/26 05:07:08;;;;;;;10.43;4.43;;;;;;;8.35;63.98;102053.59;4963995;28;20043;-45
2023/04/26 05:09:34;;;;;;;10.77;4.75;;;;;;;8.39;63.65;102048.59;4966154;28;20043;-45
2023/04/26 05:12:00;;;;;;;12.60;4.82;;;;;;;8.44;63.67;102048.75;4964213;28;20049;-45
2023/04/26 05:14:25;;;;;;;11.70;4.57;;;;;;;8.55;63.47;102037.97;4968078;28;20043;-44
2023/04/26 05:16:51;;;;;;;9.50;4.22;;;;;;;8.75;63.36;102043.06;4963583;28;20027;-45
2023/04/26 05:19:16;;;;;;;9.35;4.45;;;;;;;8.76;63.04;102039.66;4966384;28;20063;-50
2023/04/26 05:21:41;;;;;;;10.90;4.57;;;;;;;8.94;63.05;102041.25;4967164;28;20218;-45
2023/04/26 05:24:07;;;;;;;9.02;4.50;;;;;;;9.03;62.44;102042.41;4963204;28;20089;-45
2023/04/26 05:26:34;;;;;;;10.05;4.80;;;;;;;9.10;62.45;102041.81;4967664;28;20042;-45
2023/04/26 05:28:59;;;;;;;9.60;4.80;;;;;;;9.29;62.72;102049.50;4963448;28;20039;-45
2023/04/26 05:31:25;;;;;;;25.75;13.55;;;;;;;9.20;61.36;102055.25;4967296;28;20093;-41
2023/04/26 05:33:51;;;;;;;19.45;10.30;;;;;;;9.27;61.98;102054.63;4962010;28;20042;-39
2023/04/26 05:36:16;;;;;;;15.48;7.93;;;;;;;9.54;61.48;102052.16;4965620;28;20038;-40
2023/04/26 05:38:41;;;;;;;11.18;5.65;;;;;;;9.94;60.59;102056.19;4968790;28;20414;-40
2023/04/26 05:41:07;;;;;;;14.65;6.20;;;;;;;10.03;59.69;102061.72;4967287;28;20117;-41
2023/04/26 05:43:32;;;;;;;10.23;5.80;;;;;;;10.36;59.18;102055.09;4964991;28;20035;-40
2023/04/26 05:45:57;;;;;;;13.95;5.47;;;;;;;10.68;57.88;102060.41;4975864;28;20058;-41
2023/04/26 05:48:24;;;;;;;9.77;4.95;;;;;;;10.82;56.68;102052.19;4964864;28;20035;-40
2023/04/26 05:50:50;;;;;;;12.40;5.20;;;;;;;11.04;56.13;102055.50;4959165;28;20070;-44
2023/04/26 05:53:15;;;;;;;10.18;4.95;;;;;;;11.24;55.01;102052.63;4965949;28;20486;-40
2023/04/26 05:55:41;;;;;;;12.25;4.60;;;;;;;11.26;54.36;102058.78;4962120;28;20035;-43
2023/04/26 05:58:07;;;;;;;9.38;4.78;;;;;;;11.07;54.92;102056.44;4962111;28;20042;-39
2023/04/26 06:00:33;;;;;;;13.05;5.07;;;;;;;11.23;55.35;102068.22;4964544;28;20141;-40
2023/04/26 06:02:59;;;;;;;9.57;4.65;;;;;;;11.02;54.95;102067.59;4962886;28;20085;-40
2023/04/26 06:05:24;;;;;;;16.48;4.90;;;;;;;11.04;55.47;102068.53;4966141;28;20505;-38
2023/04/26 06:07:50;;;;;;;10.13;4.53;;;;;;;11.04;54.96;102071.16;4960887;28;20051;-39
2023/04/26 06:10:16;;;;;;;9.48;4.20;;;;;;;11.30;54.53;102072.78;4966408;28;20043;-41
2023/04/26 06:12:41;;;;;;;9.65;4.45;;;;;;;11.47;53.44;102083.72;4968953;28;20109;-41
2023/04/26 06:15:07;;;;;;;12.93;4.53;;;;;;;11.54;53.49;102085.66;4968906;28;20039;-41
2023/04/26 06:17:33;;;;;;;9.77;4.40;;;;;;;11.38;52.36;102081.75;4971419;28;20527;-40
2023/04/26 06:19:58;;;;;;;10.75;4.03;;;;;;;11.07;53.07;102086.88;4967712;28;20035;-41
2023/04/26 06:22:23;;;;;;;8.88;3.97;;;;;;;11.16;52.07;102093.25;4970875;28;20046;-43
2023/04/26 06:24:49;;;;;;;7.75;4.20;;;;;;;10.98;52.61;102090.06;4967212;28;20042;-40
2023/04/26 06:27:14;;;;;;;8.60;3.90;;;;;;;11.20;52.26;102089.91;4964662;28;20509;-39
2023/04/26 06:29:40;;;;;;;10.88;3.90;;;;;;;11.18;51.98;102088.09;4966618;28;20522;-40
2023/04/26 06:32:06;;;;;;;7.00;3.85;;;;;;;11.06;52.15;102093.81;4967068;28;20374;-39
2023/04/26 06:34:31;;;;;;;8.32;3.90;;;;;;;11.15;52.12;102091.50;4971414;28;20054;-39
2023/04/26 06:36:56;;;;;;;11.80;4.03;;;;;;;11.15;52.98;102094.13;4969067;28;20038;-42
2023/04/26 06:39:22;;;;;;;8.77;3.95;;;;;;;11.25;52.31;102103.09;4971107;28;20041;-39
2023/04/26 06:41:47;;;;;;;14.88;4.30;;;;;;;11.43;52.50;102093.19;4971200;28;20050;-47
2023/04/26 06:44:12;;;;;;;10.48;3.90;;;;;;;11.57;52.18;102089.28;4970860;28;20049;-39
2023/04/26 06:46:37;;;;;;;11.15;3.75;;;;;;;11.56;51.41;102087.50;4971764;28;20038;-38
2023/04/26 06:49:03;;;;;;;6.82;3.42;;;;;;;11.72;50.93;102087.06;4969080;28;20030;-40
2023/04/26 06:51:28;;;;;;;11.10;4.30;;;;;;;11.40;50.52;102087.91;4972315;28;20031;-38
2023/04/26 06:53:54;;;;;;;11.68;3.53;;;;;;;11.51;49.62;102085.59;4982602;28;20042;-38
2023/04/26 06:56:20;;;;;;;8.30;3.40;;;;;;;11.33;50.53;102086.84;4970517;28;20129;-39
2023/04/26 06:59:18;;;;;;;6.63;3.38;;;;;;;11.56;51.21;102095.31;4971197;28;21542;-41
2023/04/26 07:01:43;;;;;;;8.88;3.15;;;;;;;11.23;51.19;102094.31;4978231;28;20406;-41
2023/04/26 07:04:09;;;;;;;5.53;2.30;;;;;;;11.39;51.58;102100.06;4968115;28;20034;-39
2023/04/26 07:06:36;;;;;;;5.95;2.00;;;;;;;10.45;52.99;102104.00;4968068;28;20034;-39
2023/04/26 07:09:01;;;;;;;5.78;2.20;;;;;;;10.14;55.38;102110.75;4960989;28;20591;-39
2023/04/26 07:11:27;;;;;;;4.68;1.70;;;;;;;11.02;53.36;102112.84;4966600;28;20042;-41
2023/04/26 07:13:52;;;;;;;4.50;2.13;;;;;;;10.94;53.37;102107.38;4963192;28;20054;-43
2023/04/26 07:16:17;;;;;;;4.07;1.95;;;;;;;11.15;53.09;102101.94;4964900;28;20053;-39
2023/04/26 07:18:43;;;;;;;4.70;1.80;;;;;;;10.95;53.26;102106.53;4964755;28;20094;-39
2023/04/26 07:21:08;;;;;;;6.13;2.10;;;;;;;11.09;53.72;102106.97;4962658;28;20124;-44
2023/04/26 07:23:34;;;;;;;5.28;2.00;;;;;;;10.85;53.53;102107.09;4964555;28;20370;-41
2023/04/26 07:26:00;;;;;;;4.10;2.00;;;;;;;11.22;52.84;102103.88;4961290;28;20558;-42
2023/04/26 07:28:26;;;;;;;4.18;2.13;;;;;;;11.46;51.18;102105.47;4971338;28;20066;-41
2023/04/26 07:30:52;;;;;;;3.42;1.85;;;;;;;12.09;50.79;102103.78;4968017;28;20027;-39
2023/04/26 07:33:17;;;;;;;5.78;1.90;;;;;;;11.83;49.57;102097.00;4971626;28;20105;-42
2023/04/26 07:35:42;;;;;;;5.75;1.70;;;;;;;11.88;48.35;102100.59;4969604;28;20035;-40
2023/04/26 07:38:09;;;;;;;8.90;1.80;;;;;;;12.22;47.09;102097.16;4962164;28;20524;-39
2023/04/26 07:40:35;;;;;;;5.47;2.20;;;;;;;12.48;48.92;102098.72;4965096;28;20031;-39
2023/04/26 07:43:00;;;;;;;4.43;1.90;;;;;;;13.07;46.68;102102.75;4962946;28;20039;-37
2023/04/26 07:45:25;;;;;;;5.07;1.70;;;;;;;12.80;46.16;102105.63;4966345;28;20035;-42
2023/04/26 07:47:51;;;;;;;5.07;1.70;;;;;;;13.14;45.91;102111.66;4962536;28;20027;-41
2023/04/26 07:50:16;;;;;;;4.88;1.75;;;;;;;13.23;45.28;102110.16;4963426;28;20038;-43
2023/04/26 07:52:42;;;;;;;3.45;1.80;;;;;;;13.08;44.12;102104.53;4962015;28;20097;-40
2023/04/26 07:55:08;;;;;;;5.50;1.80;;;;;;;12.84;44.75;102103.97;4959469;28;20062;-43
2023/04/26 07:57:33;;;;;;;5.95;2.15;;;;;;;13.06;45.17;102107.94;4963518;28;20046;-41
2023/04/26 07:59:58;;;;;;;5.68;2.00;;;;;;;13.33;45.39;102105.97;4963576;28;20486;-42
2023/04/26 08:02:24;;;;;;;7.22;1.98;;;;;;;13.31;44.11;102113.81;4967330;28;20039;-39
2023/04/26 08:04:51;;;;;;;4.70;1.73;;;;;;;13.15;43.32;102110.81;4960132;28;20030;-43
2023/04/26 08:07:17;;;;;;;5.70;2.00;;;;;;;13.17;45.01;102119.59;4967104;28;20118;-41
2023/04/26 08:09:43;;;;;;;7.15;2.10;;;;;;;13.16;45.21;102117.81;4966951;28;20031;-42
2023/04/26 08:12:09;;;;;;;5.07;2.08;;;;;;;14.09;43.42;102118.88;4963576;28;20031;-37
2023/04/26 08:14:35;;;;;;;3.55;2.00;;;;;;;13.69;42.10;102118.97;4966674;28;20022;-39
2023/04/26 08:17:00;;;;;;;7.25;2.20;;;;;;;13.44;43.88;102116.69;4962667;28;20073;-39
2023/04/26 08:19:29;;;;;;;4.70;1.70;;;;;;;14.16;41.64;102112.00;4991472;23;20047;-40
2023/04/26 08:21:55;;;;;;;4.38;1.80;;;;;;;14.57;40.50;102105.81;4966803;28;20121;-40
2023/04/26 08:24:20;;;;;;;5.20;1.67;;;;;;;14.94;40.63;102109.03;4968798;28;20493;-41
2023/04/26 08:26:45;;;;;;;4.25;1.50;;;;;;;15.16;38.67;102110.19;4967268;28;20042;-43
2023/04/26 08:29:11;;;;;;;4.68;1.70;;;;;;;14.81;38.32;102110.56;4961640;28;20114;-41
2023/04/26 08:31:36;;;;;;;3.65;1.60;;;;;;;15.07;38.34;102105.69;4966557;28;20118;-42
2023/04/26 08:34:01;;;;;;;3.15;1.70;;;;;;;14.70;40.02;102113.88;4962803;28;20034;-40
2023/04/26 08:36:27;;;;;;;4.35;1.70;;;;;;;15.05;38.30;102098.66;4966462;28;20485;-39
2023/04/26 08:38:52;;;;;;;7.90;1.90;;;;;;;13.89;40.25;102106.28;4962985;28;20489;-39
2023/04/26 08:41:22;;;;;;;4.25;1.70;;;;;;;14.18;40.21;102105.06;4966416;28;20095;-41
2023/04/26 08:43:48;;;;;;;10.13;1.70;;;;;;;13.09;40.56;102101.06;4962121;28;20066;-39
2023/04/26 08:46:17;;;;;;;6.53;1.70;;;;;;;13.23;41.07;102115.38;4965948;28;20086;-40
2023/04/26 08:48:45;;;;;;;5.07;1.80;;;;;;;13.76;40.39;102106.03;4966493;28;20045;-42
2023/04/26 08:51:13;;;;;;;6.55;2.03;;;;;;;13.36;41.12;102108.66;4963263;28;20030;-39
2023/04/26 08:53:39;;;;;;;4.00;1.80;;;;;;;12.99;41.78;102118.28;4965294;28;20053;-40
2023/04/26 08:56:07;;;;;;;6.47;1.90;;;;;;;12.86;42.55;102121.47;4963401;28;20057;-43
2023/04/26 08:58:32;;;;;;;10.02;2.00;;;;;;;12.25;45.10;102115.56;4965938;28;20112;-41
2023/04/26 09:00:59;;;;;;;5.78;2.10;;;;;;;12.25;47.37;102131.25;4962996;28;20057;-43
2023/04/26 09:03:25;;;;;;;4.93;2.17;;;;;;;12.11;48.36;102126.53;4966470;28;20105;-40
2023/04/26 09:05:51;;;;;;;9.20;3.28;;;;;;;11.74;52.91;102129.84;4962111;28;20034;-40
2023/04/26 09:08:17;;;;;;;8.32;3.25;;;;;;;11.44;53.21;102130.66;4965744;28;20038;-40
2023/04/26 09:10:42;;;;;;;8.43;3.53;;;;;;;10.81;55.23;102135.63;4966247;28;20038;-42
2023/04/26 09:13:08;;;;;;;5.07;2.70;;;;;;;11.23;55.21;102143.91;4963058;28;20050;-41
2023/04/26 09:15:33;;;;;;;5.50;2.50;;;;;;;11.03;56.15;102145.03;4965939;28;20050;-42
2023/04/26 09:18:19;;;;;;;5.22;2.83;;;;;;;11.14;54.51;102141.03;4963195;28;20039;-39
2023/04/26 09:20:45;;;;;;;6.10;2.15;;;;;;;11.47;52.56;102134.22;4967504;28;21910;-42
2023/04/26 09:23:10;;;;;;;6.10;2.40;;;;;;;11.62;50.41;102129.47;4965091;28;20086;-44
2023/04/26 09:25:36;;;;;;;6.68;2.28;;;;;;;11.81;50.98;102125.69;4966733;28;20031;-41
2023/04/26 09:28:03;;;;;;;9.57;2.50;;;;;;;12.35;50.25;102125.41;4964031;28;20030;-41
2023/04/26 09:30:29;;;;;;;5.65;2.65;;;;;;;12.87;50.52;102130.19;4967492;28;20062;-40
2023/04/26 09:33:03;;;;;;;6.82;3.08;;;;;;;12.88;50.80;102122.38;4963134;28;20043;-40
2023/04/26 09:35:36;;;;;;;5.10;2.45;;;;;;;12.88;49.25;102121.50;4966927;28;20039;-41
2023/04/26 09:38:02;;;;;;;6.07;2.47;;;;;;;13.15;49.52;102113.44;4963135;28;20129;-40
2023/04/26 09:40:29;;;;;;;5.35;2.38;;;;;;;13.21;47.20;102114.47;4968404;28;20434;-41
2023/04/26 09:43:06;;;;;;;5.35;2.20;;;;;;;13.11;45.76;102115.09;4967239;28;20112;-40
2023/04/26 09:45:41;;;;;;;5.75;2.22;;;;;;;13.51;46.10;102111.63;4970104;28;20038;-39
2023/04/26 09:48:33;;;;;;;6.03;2.33;;;;;;;13.42;45.78;102110.56;4966991;28;20062;-40
2023/04/26 09:51:09;;;;;;;5.65;2.30;;;;;;;13.29;44.59;102109.41;4966814;28;20039;-40
2023/04/26 09:53:37;;;;;;;3.92;1.90;;;;;;;13.51;44.12;102114.25;4967635;28;20030;-40
2023/04/26 09:56:29;;;;;;;3.50;1.98;;;;;;;14.04;42.83;102117.91;4962945;28;20122;-40
2023/04/26 09:58:57;;;;;;;5.32;1.80;;;;;;;14.53;43.55;102105.72;4964460;28;20042;-42
2023/04/26 10:01:23;;;;;;;4.00;2.00;;;;;;;14.68;41.47;102099.84;4971989;28;20066;-40
2023/04/26 10:03:49;;;;;;;7.90;2.00;;;;;;;14.70;42.10;102106.00;4969224;28;20125;-39
2023/04/26 10:06:15;;;;;;;5.47;2.20;;;;;;;14.78;41.51;102100.00;4972466;28;20035;-43
2023/04/26 10:08:41;;;;;;;4.97;2.05;;;;;;;14.49;41.70;102102.16;4972610;28;20121;-43
2023/04/26 10:11:10;;;;;;;4.15;1.42;;;;;;;13.97;37.26;102112.53;4968606;28;20023;-40
2023/04/26 10:13:36;;;;;;;4.72;1.70;;;;;;;13.68;37.54;102099.75;4966796;28;20441;-40
2023/04/26 10:16:02;;;;;;;4.78;1.75;;;;;;;13.56;38.18;102101.22;4967233;28;20042;-42
2023/04/26 10:18:28;;;;;;;4.57;1.90;;;;;;;13.96;37.30;102095.94;4975592;28;20046;-42
2023/04/26 10:20:58;;;;;;;5.45;1.88;;;;;;;14.47;38.06;102093.38;4972032;28;20502;-40
2023/04/26 10:23:24;;;;;;;10.00;2.00;;;;;;;14.98;38.28;102089.81;4972978;28;20034;-40
2023/04/26 10:25:51;;;;;;;8.13;1.90;;;;;;;15.46;38.02;102099.22;4960683;28;20520;-42
2023/04/26 10:28:44;;;;;;;3.88;1.70;;;;;;;14.19;38.21;102099.84;4964674;28;20122;-42
2023/04/26 10:31:09;;;;;;;3.47;1.75;;;;;;;14.15;38.79;102100.63;4960589;28;20049;-41
2023/04/26 10:33:34;;;;;;;4.97;1.90;;;;;;;14.54;37.50;102096.97;4964345;28;20027;-41
2023/04/26 10:36:02;;;;;;;4.20;1.70;;;;;;;13.79;36.98;102100.84;4961735;28;20027;-41
2023/04/26 10:38:28;;;;;;;5.70;1.67;;;;;;;14.41;37.44;102081.88;4965151;28;20035;-40
2023/04/26 10:40:54;;;;;;;5.05;1.88;;;;;;;14.24;37.65;102105.19;4961594;28;20084;-41
2023/04/26 10:43:29;;;;;;;6.30;1.70;;;;;;;13.37;38.43;102097.34;4965116;28;20034;-39
2023/04/26 10:45:57;;;;;;;4.20;1.80;;;;;;;13.50;38.79;102099.38;4961383;28;20617;-40
2023/04/26 10:48:30;;;;;;;3.95;1.80;;;;;;;14.10;38.62;102090.91;4964530;28;20031;-45
2023/04/26 10:51:04;;;;;;;6.13;1.88;;;;;;;13.65;38.32;102086.59;4961272;28;20150;-40
2023/04/26 10:53:31;;;;;;;3.88;1.80;;;;;;;13.72;38.16;102091.06;4964102;28;20251;-42
2023/04/26 10:55:57;;;;;;;3.38;1.70;;;;;;;14.45;37.23;102075.84;4960897;28;20042;-42
2023/04/26 10:58:33;;;;;;;4.53;2.13;;;;;;;14.72;36.13;102080.66;4964749;28;20031;-45
2023/04/26 11:01:16;;;;;;;3.80;1.77;;;;;;;14.78;37.15;102075.50;4960276;28;20046;-41
2023/04/26 11:03:42;;;;;;;3.63;1.70;;;;;;;14.56;37.42;102076.91;4964542;28;20386;-46
2023/04/26 11:06:12;;;;;;;4.35;1.80;;;;;;;14.35;37.84;102074.78;4960784;28;20093;-43
2023/04/26 11:08:38;;;;;;;5.88;1.88;;;;;;;14.15;38.40;102074.41;4964441;28;20035;-41
2023/04/26 11:11:03;;;;;;;6.28;1.90;;;;;;;14.07;39.05;102076.03;4962042;28;20114;-41
2023/04/26 11:13:47;;;;;;;4.25;1.65;;;;;;;14.53;35.75;102067.22;4966263;28;20038;-39
2023/04/26 11:16:14;;;;;;;3.00;1.50;;;;;;;14.55;35.60;102070.78;4961941;28;20027;-43
2023/04/26 11:18:41;;;;;;;5.25;1.88;;;;;;;14.71;35.66;102064.00;4965420;28;20081;-39
2023/04/26 11:21:08;;;;;;;4.63;1.88;;;;;;;14.95;37.70;102063.50;4962254;28;20054;-41
2023/04/26 11:23:34;;;;;;;4.43;2.10;;;;;;;14.26;39.34;102066.75;4965150;28;20509;-40